createdAt,value
2023-03-15T00:03:45.832Z,992.64
2023-03-15T00:08:45.697Z,992.77
2023-03-15T00:13:45.643Z,992.90
2023-03-15T00:18:45.568Z,992.98
2023-03-15T00:23:45.513Z,993.04
2023-03-15T00:28:45.446Z,993.11
2023-03-15T00:33:45.392Z,993.14
2023-03-15T00:38:45.307Z,993.09
2023-03-15T00:43:45.255Z,993.14
2023-03-15T00:48:45.186Z,993.16
2023-03-15T00:53:45.124Z,993.15
2023-03-15T00:58:45.056Z,993.33
2023-03-15T01:03:45.000Z,993.41
2023-03-15T01:08:44.946Z,993.37
2023-03-15T01:13:44.867Z,993.37
2023-03-15T01:18:44.792Z,993.36
2023-03-15T01:23:44.736Z,993.39
2023-03-15T01:28:44.677Z,993.44
2023-03-15T01:33:44.605Z,993.46
2023-03-15T01:38:44.602Z,993.51
2023-03-15T01:43:44.479Z,993.56
2023-03-15T01:48:44.416Z,993.65
2023-03-15T01:53:44.334Z,993.57
2023-03-15T01:58:44.286Z,993.70
2023-03-15T02:03:44.204Z,993.70
2023-03-15T02:08:44.154Z,993.76
2023-03-15T02:13:44.072Z,993.80
2023-03-15T02:18:44.032Z,993.80
2023-03-15T02:23:43.952Z,993.85
2023-03-15T02:28:43.895Z,993.91
2023-03-15T02:33:43.808Z,993.96
2023-03-15T02:38:43.765Z,994.03
2023-03-15T02:43:43.694Z,994.09
2023-03-15T02:48:43.625Z,994.09
2023-03-15T02:53:43.579Z,994.08
2023-03-15T02:58:43.501Z,994.15
2023-03-15T03:03:43.433Z,994.14
2023-03-15T03:08:43.381Z,994.24
2023-03-15T03:13:43.404Z,994.22
2023-03-15T03:18:43.253Z,994.33
2023-03-15T03:23:43.177Z,994.54
2023-03-15T03:28:43.122Z,994.60
2023-03-15T03:33:43.048Z,994.68
2023-03-15T03:38:42.994Z,994.72
2023-03-15T03:43:42.919Z,994.76
2023-03-15T03:48:42.864Z,994.88
2023-03-15T03:53:42.792Z,994.88
2023-03-15T03:58:42.736Z,994.94
2023-03-15T04:03:42.668Z,995.10
2023-03-15T04:08:42.647Z,995.09
2023-03-15T04:13:42.538Z,995.10
2023-03-15T04:18:42.483Z,995.14
2023-03-15T04:23:42.421Z,995.17
2023-03-15T04:28:42.352Z,995.17
2023-03-15T04:33:42.288Z,995.28
2023-03-15T04:38:42.230Z,995.30
2023-03-15T04:43:42.180Z,995.23
2023-03-15T04:48:42.103Z,995.40
2023-03-15T04:53:42.039Z,995.49
2023-03-15T04:58:41.975Z,995.52
2023-03-15T05:03:41.902Z,995.61
2023-03-15T05:08:41.847Z,995.64
2023-03-15T05:13:41.776Z,995.62
2023-03-15T05:18:41.717Z,995.66
2023-03-15T05:23:41.650Z,995.62
2023-03-15T05:28:41.591Z,995.80
2023-03-15T05:33:41.522Z,996.00
2023-03-15T05:38:41.461Z,996.01
2023-03-15T05:43:41.396Z,996.04
2023-03-15T05:48:41.339Z,996.03
2023-03-15T05:53:41.284Z,996.16
2023-03-15T05:58:41.208Z,996.19
2023-03-15T06:03:41.277Z,996.27
2023-03-15T06:08:41.086Z,996.25
2023-03-15T06:13:41.016Z,996.40
2023-03-15T06:18:40.961Z,996.49
2023-03-15T06:23:40.883Z,996.61
2023-03-15T06:28:40.829Z,996.65
2023-03-15T06:33:40.766Z,996.65
2023-03-15T06:38:40.705Z,996.74
2023-03-15T06:43:40.643Z,996.83
2023-03-15T06:48:40.595Z,996.95
2023-03-15T06:53:40.511Z,997.01
2023-03-15T06:58:40.450Z,997.07
2023-03-15T07:03:40.385Z,997.05
2023-03-15T07:08:40.329Z,997.15
2023-03-15T07:13:40.257Z,997.14
2023-03-15T07:18:40.234Z,997.20
2023-03-15T07:23:40.137Z,997.29
2023-03-15T07:28:40.128Z,997.30
2023-03-15T07:33:40.011Z,997.39
2023-03-15T07:38:42.031Z,997.43
2023-03-15T07:43:39.865Z,997.47
2023-03-15T07:48:39.808Z,997.52
2023-03-15T07:53:39.741Z,997.54
2023-03-15T07:58:39.674Z,997.63
2023-03-15T08:03:39.600Z,997.67
2023-03-15T08:08:39.540Z,997.71
2023-03-15T08:13:39.467Z,997.83
2023-03-15T08:18:39.414Z,997.86
2023-03-15T08:23:39.338Z,997.93
2023-03-15T08:28:39.284Z,997.99
2023-03-15T08:33:39.209Z,998.01
2023-03-15T08:38:39.160Z,998.04
2023-03-15T08:43:39.081Z,998.03
2023-03-15T08:48:39.036Z,998.09
2023-03-15T08:53:38.948Z,998.11
2023-03-15T08:58:38.889Z,998.18
2023-03-15T09:03:38.818Z,998.16
2023-03-15T09:08:38.757Z,998.24
2023-03-15T09:13:38.690Z,998.26
2023-03-15T09:18:38.626Z,998.33
2023-03-15T09:23:39.074Z,998.33
2023-03-15T09:28:38.504Z,998.44
2023-03-15T09:33:38.423Z,998.55
2023-03-15T09:38:38.364Z,998.55
2023-03-15T09:43:38.291Z,998.61
2023-03-15T09:48:38.237Z,998.60
2023-03-15T09:53:38.166Z,998.69
2023-03-15T09:58:38.101Z,998.73
2023-03-15T10:03:38.224Z,998.73
2023-03-15T10:08:37.978Z,998.72
2023-03-15T10:13:37.901Z,998.78
2023-03-15T10:18:37.841Z,998.76
2023-03-15T10:23:37.774Z,998.73
2023-03-15T10:28:37.708Z,998.73
2023-03-15T10:33:37.642Z,998.74
2023-03-15T10:38:37.586Z,998.82
2023-03-15T10:43:37.521Z,998.89
2023-03-15T10:48:37.445Z,998.88
2023-03-15T10:53:37.371Z,998.92
2023-03-15T10:58:37.317Z,998.88
2023-03-15T11:03:37.245Z,998.98
2023-03-15T11:08:37.186Z,999.09
2023-03-15T11:13:37.116Z,999.13
2023-03-15T11:18:37.050Z,999.09
2023-03-15T11:23:36.974Z,999.06
2023-03-15T11:28:36.934Z,999.08
2023-03-15T11:33:36.848Z,999.11
2023-03-15T11:38:36.789Z,999.05
2023-03-15T11:43:36.723Z,998.97
2023-03-15T11:48:36.665Z,998.99
2023-03-15T11:53:36.589Z,998.98
2023-03-15T11:58:36.571Z,998.94
2023-03-15T12:03:36.502Z,998.93
2023-03-15T12:08:36.403Z,998.89
2023-03-15T12:13:36.327Z,998.94
2023-03-15T12:18:36.321Z,998.88
2023-03-15T12:23:36.205Z,998.90
2023-03-15T12:28:36.136Z,998.89
2023-03-15T12:33:36.082Z,998.97
2023-03-15T12:38:36.001Z,998.95
2023-03-15T12:43:35.928Z,999.01
2023-03-15T12:48:35.923Z,999.03
2023-03-15T12:53:35.799Z,999.07
2023-03-15T12:58:35.739Z,999.09
2023-03-15T13:03:35.793Z,999.16
2023-03-15T13:08:35.607Z,999.17
2023-03-15T13:13:35.544Z,999.09
2023-03-15T13:18:35.479Z,999.17
2023-03-15T13:23:35.407Z,999.18
2023-03-15T13:28:35.350Z,999.24
2023-03-15T13:33:35.276Z,999.31
2023-03-15T13:38:35.231Z,999.33
2023-03-15T13:43:35.173Z,999.36
2023-03-15T13:48:35.094Z,999.42
2023-03-15T13:53:48.637Z,999.49
2023-03-15T13:58:35.989Z,999.53
2023-03-15T14:03:34.887Z,999.48
2023-03-15T14:08:34.832Z,999.48
2023-03-15T14:13:34.789Z,999.50
2023-03-15T14:18:34.718Z,999.57
2023-03-15T14:23:34.635Z,999.61
2023-03-15T14:28:34.584Z,999.65
2023-03-15T14:33:34.506Z,999.71
2023-03-15T14:38:34.443Z,999.73
2023-03-15T14:43:34.369Z,999.76
2023-03-15T14:48:34.318Z,999.78
2023-03-15T14:53:34.237Z,999.79
2023-03-15T14:58:34.182Z,999.80
2023-03-15T15:03:34.106Z,999.84
2023-03-15T15:08:34.051Z,999.92
2023-03-15T15:13:33.980Z,1000.10
2023-03-15T15:18:33.917Z,1000.12
2023-03-15T15:23:34.918Z,1000.13
2023-03-15T15:28:37.007Z,1000.15
2023-03-15T15:33:33.713Z,1000.30
2023-03-15T15:38:33.666Z,1000.40
2023-03-15T15:43:33.903Z,1000.52
2023-03-15T15:48:33.562Z,1000.62
2023-03-15T15:53:33.452Z,1000.75
2023-03-15T15:58:33.407Z,1000.87
2023-03-15T16:03:33.320Z,1000.92
2023-03-15T16:08:33.257Z,1000.93
2023-03-15T16:13:33.186Z,1000.91
2023-03-15T16:18:33.127Z,1000.95
2023-03-15T16:23:33.057Z,1001.11
2023-03-15T16:28:32.999Z,1001.25
2023-03-15T16:33:32.922Z,1001.30
2023-03-15T16:38:32.869Z,1001.40
2023-03-15T16:43:32.795Z,1001.45
2023-03-15T16:48:32.733Z,1001.47
2023-03-15T16:53:32.663Z,1001.53
2023-03-15T16:58:32.602Z,1001.69
2023-03-15T17:03:32.529Z,1001.73
2023-03-15T17:08:32.471Z,1001.93
2023-03-15T17:13:32.399Z,1001.99
2023-03-15T17:18:32.343Z,1002.14
2023-03-15T17:23:32.265Z,1002.19
2023-03-15T17:28:32.206Z,1002.23
2023-03-15T17:33:32.133Z,1002.26
2023-03-15T17:38:32.076Z,1002.34
2023-03-15T17:43:32.003Z,1002.30
2023-03-15T17:48:31.942Z,1002.41
2023-03-15T17:53:31.869Z,1002.46
2023-03-15T17:58:31.822Z,1002.47
2023-03-15T18:03:31.744Z,1002.52
2023-03-15T18:08:31.691Z,1002.46
2023-03-15T18:13:31.612Z,1002.60
2023-03-15T18:18:31.558Z,1002.65
2023-03-15T18:23:31.481Z,1002.63
2023-03-15T18:28:31.428Z,1002.66
2023-03-15T18:33:31.347Z,1002.76
2023-03-15T18:38:31.319Z,1002.82
2023-03-15T18:43:31.212Z,1002.90
2023-03-15T18:48:40.599Z,1003.02
2023-03-15T18:53:31.082Z,1003.03
2023-03-15T18:58:31.157Z,1003.12
2023-03-15T19:03:30.952Z,1003.11
2023-03-15T19:08:30.936Z,1003.10
2023-03-15T19:13:30.912Z,1003.14
2023-03-15T19:18:30.825Z,1003.13
2023-03-15T19:23:30.712Z,1003.17
2023-03-15T19:28:30.646Z,1003.24
2023-03-15T19:33:30.591Z,1003.32
2023-03-15T19:38:30.523Z,1003.35
2023-03-15T19:43:30.449Z,1003.34
2023-03-15T19:48:30.403Z,1003.44
2023-03-15T19:53:30.337Z,1003.51
2023-03-15T19:58:30.270Z,1003.57
2023-03-15T20:03:30.200Z,1003.61
2023-03-15T20:08:30.147Z,1003.71
2023-03-15T20:13:30.082Z,1003.78
2023-03-15T20:18:30.145Z,1003.77
2023-03-15T20:23:29.951Z,1003.78
2023-03-15T20:28:29.895Z,1003.75
2023-03-15T20:33:29.837Z,1003.77
2023-03-15T20:38:29.773Z,1003.87
2023-03-15T20:43:29.700Z,1003.89
2023-03-15T20:48:29.648Z,1003.97
2023-03-15T20:53:29.573Z,1004.05
2023-03-15T20:58:29.520Z,1004.10
2023-03-15T21:03:29.536Z,1004.17
2023-03-15T21:08:29.388Z,1004.22
2023-03-15T21:13:29.320Z,1004.24
2023-03-15T21:18:29.306Z,1004.22
2023-03-15T21:23:29.180Z,1004.21
2023-03-15T21:28:29.127Z,1004.28
2023-03-15T21:33:29.050Z,1004.27
2023-03-15T21:38:29.006Z,1004.38
2023-03-15T21:43:28.924Z,1004.48
2023-03-15T21:48:28.857Z,1004.42
2023-03-15T21:53:28.786Z,1004.49
2023-03-15T21:58:28.728Z,1004.48
2023-03-15T22:03:28.665Z,1004.53
2023-03-15T22:08:28.602Z,1004.59
2023-03-15T22:13:28.533Z,1004.54
2023-03-15T22:18:28.500Z,1004.61
2023-03-15T22:23:28.410Z,1004.60
2023-03-15T22:28:28.350Z,1004.64
2023-03-15T22:33:28.278Z,1004.67
2023-03-15T22:38:28.223Z,1004.75
2023-03-15T22:43:28.159Z,1004.71
2023-03-15T22:48:28.085Z,1004.68
2023-03-15T22:53:28.030Z,1004.74
2023-03-15T22:58:27.980Z,1004.73
2023-03-15T23:03:27.907Z,1004.78
2023-03-15T23:08:27.858Z,1004.77
2023-03-15T23:13:27.816Z,1004.81
2023-03-15T23:18:27.713Z,1004.91
2023-03-15T23:23:27.655Z,1004.89
2023-03-15T23:28:27.580Z,1004.90
2023-03-15T23:33:27.529Z,1004.87
2023-03-15T23:38:27.464Z,1004.89
2023-03-15T23:43:27.411Z,1004.93
2023-03-15T23:48:27.389Z,1004.92
2023-03-15T23:53:27.286Z,1004.97
2023-03-15T23:58:27.214Z,1005.03
